Time;durP1;ratioP1;P1;durP2;ratioP2;P2;SDS_P1;SDS_P2;PMS_P1;PMS_P2;Temp;Humidity;BMP_temperature;BMP_pressure;BME280_temperature;BME280_humidity;BME280_pressure;Samples;Min_cycle;Max_cycle;Signal;HPM_P1;HPM_P2
2021/01/12 00:02:22;;;;;;;35.63;19.45;;;;;;;;;;4971607;28;20038;-80
2021/01/12 00:04:48;;;;;;;33.17;16.73;;;;;;;;;;4976034;28;20037;-81
2021/01/12 00:07:15;;;;;;;32.53;17.85;;;;;;;;;;4992731;28;20376;-80
2021/01/12 00:09:43;;;;;;;32.80;18.88;;;;;;;;;;4972717;28;20066;-81
2021/01/12 00:12:10;;;;;;;36.05;16.38;;;;;;;;;;4965739;28;20031;-81
2021/01/12 00:14:36;;;;;;;38.92;17.17;;;;;;;;;;4974367;28;20055;-80
2021/01/12 00:17:06;;;;;;;31.55;15.88;;;;;;;;;;4972636;28;20468;-81
2021/01/12 00:19:33;;;;;;;32.97;17.45;;;;;;;;;;4973753;28;20109;-81
2021/01/12 00:21:59;;;;;;;36.65;18.42;;;;;;;;;;4970581;28;20030;-81
2021/01/12 00:24:26;;;;;;;34.03;17.08;;;;;;;;;;4977898;28;20149;-81
2021/01/12 00:26:52;;;;;;;33.10;17.15;;;;;;;;;;4977599;28;20054;-80
2021/01/12 00:29:18;;;;;;;25.60;14.40;;;;;;;;;;4973575;28;20489;-79
2021/01/12 00:31:45;;;;;;;31.38;17.05;;;;;;;;;;4973424;28;20098;-81
2021/01/12 00:34:12;;;;;;;31.77;16.90;;;;;;;;;;4977007;28;20022;-80
2021/01/12 00:36:47;;;;;;;32.15;17.00;;;;;;;;;;4957342;28;20039;-80
2021/01/12 00:39:13;;;;;;;32.92;18.08;;;;;;;;;;4976498;28;20033;-80
2021/01/12 00:41:39;;;;;;;30.90;15.95;;;;;;;;;;4975889;28;20034;-80
2021/01/12 00:44:06;;;;;;;27.38;14.68;;;;;;;;;;4969149;28;20070;-80
2021/01/12 00:46:35;;;;;;;29.48;14.55;;;;;;;;;;4974842;28;20038;-80
2021/01/12 00:49:01;;;;;;;29.00;15.60;;;;;;;;;;4976241;28;20022;-80
2021/01/12 00:51:34;;;;;;;27.63;15.02;;;;;;;;;;4975812;28;20030;-80
2021/01/12 00:54:05;;;;;;;29.60;16.02;;;;;;;;;;4976019;28;20041;-80
2021/01/12 00:56:31;;;;;;;27.52;14.45;;;;;;;;;;4992493;28;20037;-80
2021/01/12 00:58:57;;;;;;;29.50;15.82;;;;;;;;;;4972556;28;20038;-80
2021/01/12 01:01:24;;;;;;;30.27;15.00;;;;;;;;;;4974567;28;20022;-80
2021/01/12 01:03:50;;;;;;;25.95;14.23;;;;;;;;;;4975265;28;20804;-80
2021/01/12 01:06:16;;;;;;;30.50;16.20;;;;;;;;;;4973779;28;20022;-80
2021/01/12 01:08:42;;;;;;;30.48;15.13;;;;;;;;;;4975572;28;20030;-80
2021/01/12 01:11:08;;;;;;;28.02;14.48;;;;;;;;;;4973510;28;20022;-84
2021/01/12 01:13:34;;;;;;;26.60;13.45;;;;;;;;;;4974538;28;20034;-83
2021/01/12 01:16:00;;;;;;;30.10;16.05;;;;;;;;;;4970137;28;20677;-82
2021/01/12 01:18:26;;;;;;;25.52;13.73;;;;;;;;;;4960420;28;20030;-82
2021/01/12 01:20:52;;;;;;;25.42;14.05;;;;;;;;;;4959903;28;20046;-82
2021/01/12 01:23:19;;;;;;;25.95;13.90;;;;;;;;;;4970684;28;20037;-84
2021/01/12 01:25:45;;;;;;;28.98;15.35;;;;;;;;;;4968332;28;20027;-82
2021/01/12 01:28:11;;;;;;;25.88;13.30;;;;;;;;;;4973973;28;20097;-83
2021/01/12 01:30:37;;;;;;;26.55;14.40;;;;;;;;;;4974237;28;20022;-82
2021/01/12 01:33:03;;;;;;;29.58;14.60;;;;;;;;;;4962643;28;20066;-83
2021/01/12 01:35:29;;;;;;;30.73;15.18;;;;;;;;;;4955201;28;20027;-83
2021/01/12 01:37:55;;;;;;;27.90;14.57;;;;;;;;;;4965332;28;20049;-82
2021/01/12 01:40:22;;;;;;;28.17;13.65;;;;;;;;;;4973191;28;20054;-83
2021/01/12 01:42:50;;;;;;;24.60;13.32;;;;;;;;;;4967051;28;20038;-83
2021/01/12 01:45:17;;;;;;;24.05;12.27;;;;;;;;;;4964198;28;20125;-83
2021/01/12 01:47:46;;;;;;;23.33;12.63;;;;;;;;;;4988276;28;20037;-83
2021/01/12 01:50:16;;;;;;;24.17;12.93;;;;;;;;;;4976806;28;20542;-83
2021/01/12 01:52:49;;;;;;;21.42;12.15;;;;;;;;;;4976587;28;20042;-83
2021/01/12 01:55:16;;;;;;;21.50;11.48;;;;;;;;;;4976509;28;20499;-84
2021/01/12 01:57:42;;;;;;;21.38;11.68;;;;;;;;;;4975713;28;20117;-83
2021/01/12 02:00:10;;;;;;;19.58;9.52;;;;;;;;;;4975987;28;20026;-84
2021/01/12 02:02:47;;;;;;;18.15;10.23;;;;;;;;;;4975901;28;20022;-83
2021/01/12 02:05:14;;;;;;;21.05;12.07;;;;;;;;;;4969088;28;20023;-83
2021/01/12 02:07:44;;;;;;;18.13;10.48;;;;;;;;;;4975778;28;20023;-83
2021/01/12 02:10:14;;;;;;;19.88;11.52;;;;;;;;;;4978516;28;20046;-83
2021/01/12 02:12:45;;;;;;;21.23;11.35;;;;;;;;;;4979339;28;20030;-83
2021/01/12 02:15:12;;;;;;;17.85;10.15;;;;;;;;;;4979517;28;20078;-85
2021/01/12 02:17:38;;;;;;;20.95;12.23;;;;;;;;;;4978805;28;20373;-85
2021/01/12 02:20:04;;;;;;;22.60;10.95;;;;;;;;;;4975200;28;20886;-83
2021/01/12 02:22:31;;;;;;;20.42;9.85;;;;;;;;;;4973716;28;20035;-83
2021/01/12 02:24:58;;;;;;;19.33;10.68;;;;;;;;;;4976483;28;20034;-84
2021/01/12 02:27:24;;;;;;;20.92;11.15;;;;;;;;;;4976468;28;20085;-83
2021/01/12 02:29:51;;;;;;;21.80;11.13;;;;;;;;;;4987287;28;20022;-83
2021/01/12 02:32:17;;;;;;;20.15;11.13;;;;;;;;;;4974321;28;20019;-83
2021/01/12 02:34:48;;;;;;;18.40;10.55;;;;;;;;;;4976443;28;20268;-83
2021/01/12 02:37:15;;;;;;;21.38;11.43;;;;;;;;;;4986920;28;20159;-84
2021/01/12 02:39:46;;;;;;;18.58;11.05;;;;;;;;;;4976011;28;20496;-83
2021/01/12 02:42:16;;;;;;;17.95;10.02;;;;;;;;;;4967058;28;20027;-83
2021/01/12 02:44:42;;;;;;;17.45;9.02;;;;;;;;;;4979264;28;20034;-83
2021/01/12 02:47:08;;;;;;;19.25;10.23;;;;;;;;;;4978505;28;20030;-83
2021/01/12 02:49:34;;;;;;;17.33;8.95;;;;;;;;;;4975901;28;20023;-83
2021/01/12 02:52:01;;;;;;;17.65;9.70;;;;;;;;;;4959683;28;20090;-83
2021/01/12 02:54:27;;;;;;;14.25;8.18;;;;;;;;;;4970065;28;20030;-83
2021/01/12 02:56:54;;;;;;;15.85;8.55;;;;;;;;;;4978491;28;20514;-83
2021/01/12 02:59:20;;;;;;;18.25;8.93;;;;;;;;;;4977270;28;20501;-83
2021/01/12 03:01:57;;;;;;;15.85;8.98;;;;;;;;;;4959213;28;20031;-83
2021/01/12 03:04:23;;;;;;;16.83;10.00;;;;;;;;;;4969621;28;20102;-83
2021/01/12 03:06:49;;;;;;;15.98;8.23;;;;;;;;;;4962735;28;20022;-83
2021/01/12 03:09:15;;;;;;;15.68;8.70;;;;;;;;;;4978551;28;20104;-83
2021/01/12 03:11:41;;;;;;;17.73;9.82;;;;;;;;;;4978711;28;20032;-83
2021/01/12 03:14:07;;;;;;;18.13;9.30;;;;;;;;;;4978012;28;20632;-83
2021/01/12 03:16:34;;;;;;;16.95;9.00;;;;;;;;;;4962253;28;20039;-83
2021/01/12 03:19:01;;;;;;;15.45;8.30;;;;;;;;;;4961567;28;21670;-83
2021/01/12 03:21:27;;;;;;;16.23;7.70;;;;;;;;;;4978873;28;20033;-83
2021/01/12 03:23:53;;;;;;;15.70;8.80;;;;;;;;;;4978061;28;20495;-84
2021/01/12 03:26:22;;;;;;;18.63;8.02;;;;;;;;;;4976069;28;21675;-84
2021/01/12 03:28:49;;;;;;;15.50;8.02;;;;;;;;;;4978210;28;20026;-83
2021/01/12 03:31:15;;;;;;;15.10;8.07;;;;;;;;;;4973870;28;20078;-83
2021/01/12 03:33:42;;;;;;;14.85;8.15;;;;;;;;;;4979457;28;20014;-84
2021/01/12 03:36:15;;;;;;;14.57;7.30;;;;;;;;;;4979992;28;20023;-83
2021/01/12 03:38:41;;;;;;;15.40;7.30;;;;;;;;;;4977962;28;20404;-84
2021/01/12 03:41:07;;;;;;;12.90;7.33;;;;;;;;;;4978576;28;20102;-85
2021/01/12 03:43:33;;;;;;;13.17;7.10;;;;;;;;;;4978712;28;20670;-84
2021/01/12 03:45:59;;;;;;;14.87;6.53;;;;;;;;;;4973966;28;20309;-82
2021/01/12 03:48:25;;;;;;;13.87;6.87;;;;;;;;;;4975246;28;20284;-82
2021/01/12 03:50:57;;;;;;;13.93;6.63;;;;;;;;;;4978396;28;20285;-82
2021/01/12 03:53:23;;;;;;;16.57;7.97;;;;;;;;;;4967064;28;20129;-82
2021/01/12 03:55:50;;;;;;;9.15;5.00;;;;;;;;;;4959303;28;20262;-83
2021/01/12 03:58:16;;;;;;;11.65;5.38;;;;;;;;;;4963630;28;20030;-82
2021/01/12 04:00:42;;;;;;;12.20;5.57;;;;;;;;;;4966501;28;20105;-80
2021/01/12 04:03:08;;;;;;;9.60;5.00;;;;;;;;;;4980455;28;20560;-82
2021/01/12 04:05:34;;;;;;;10.97;5.30;;;;;;;;;;4975209;28;20884;-82
2021/01/12 04:08:01;;;;;;;11.43;6.07;;;;;;;;;;4971640;28;21001;-83
2021/01/12 04:10:27;;;;;;;8.83;4.03;;;;;;;;;;4974716;28;20317;-83
2021/01/12 04:12:53;;;;;;;11.00;5.47;;;;;;;;;;4975581;28;20288;-83
2021/01/12 04:15:19;;;;;;;9.47;4.70;;;;;;;;;;4971901;28;20266;-83
2021/01/12 04:17:45;;;;;;;9.53;4.97;;;;;;;;;;4964905;28;20298;-83
2021/01/12 04:20:12;;;;;;;10.50;5.17;;;;;;;;;;4957621;28;20270;-83
2021/01/12 04:22:38;;;;;;;9.00;4.37;;;;;;;;;;4975078;28;20285;-82
2021/01/12 04:25:05;;;;;;;8.30;4.13;;;;;;;;;;4974246;28;20265;-83
2021/01/12 04:27:43;;;;;;;10.50;4.97;;;;;;;;;;4964443;28;20278;-83
2021/01/12 04:30:09;;;;;;;8.03;3.67;;;;;;;;;;4972411;28;20284;-82
2021/01/12 04:32:38;;;;;;;7.87;3.90;;;;;;;;;;4964060;28;20274;-83
2021/01/12 04:35:04;;;;;;;8.60;4.07;;;;;;;;;;4968303;28;20368;-84
2021/01/12 04:37:31;;;;;;;11.43;4.80;;;;;;;;;;4977563;28;20331;-84
2021/01/12 04:40:01;;;;;;;10.43;4.57;;;;;;;;;;4970683;28;20294;-80
2021/01/12 04:42:32;;;;;;;8.37;3.70;;;;;;;;;;4955114;28;20266;-82
2021/01/12 04:44:59;;;;;;;7.37;3.37;;;;;;;;;;4965260;28;20327;-80
2021/01/12 04:47:25;;;;;;;8.50;4.43;;;;;;;;;;4974226;28;20293;-83
2021/01/12 04:49:51;;;;;;;5.50;2.70;;;;;;;;;;4970751;28;20278;-84
2021/01/12 04:52:17;;;;;;;6.10;3.10;;;;;;;;;;4955343;28;20274;-84
2021/01/12 04:54:46;;;;;;;7.93;3.53;;;;;;;;;;4957259;28;20302;-83
2021/01/12 04:57:12;;;;;;;6.37;3.83;;;;;;;;;;4974504;28;20269;-83
2021/01/12 04:59:39;;;;;;;9.20;3.33;;;;;;;;;;4974759;28;20270;-83
2021/01/12 05:02:06;;;;;;;6.47;2.87;;;;;;;;;;4970721;28;20659;-84
2021/01/12 05:04:35;;;;;;;6.57;3.17;;;;;;;;;;4958380;28;20274;-83
2021/01/12 05:07:01;;;;;;;6.97;2.93;;;;;;;;;;4964860;28;20282;-82
2021/01/12 05:09:34;;;;;;;7.50;3.60;;;;;;;;;;4955544;28;20721;-83
2021/01/12 05:12:01;;;;;;;6.28;2.90;;;;;;;;;;4955908;28;20317;-85
2021/01/12 05:14:28;;;;;;;6.40;2.70;;;;;;;;;;4955593;28;20031;-84
2021/01/12 05:16:55;;;;;;;5.27;2.57;;;;;;;;;;4970284;28;20350;-83
2021/01/12 05:19:22;;;;;;;5.07;2.60;;;;;;;;;;4963478;28;20277;-83
2021/01/12 05:21:59;;;;;;;6.50;3.00;;;;;;;;;;4973212;28;20284;-83
2021/01/12 05:24:25;;;;;;;4.03;2.07;;;;;;;;;;4976506;28;21013;-84
2021/01/12 05:26:51;;;;;;;3.70;2.03;;;;;;;;;;4974711;28;20381;-83
2021/01/12 05:29:17;;;;;;;5.53;2.43;;;;;;;;;;4958309;28;20276;-85
2021/01/12 05:31:48;;;;;;;4.10;2.00;;;;;;;;;;4966013;28;20478;-83
2021/01/12 05:34:17;;;;;;;5.57;2.70;;;;;;;;;;4975682;28;20261;-84
2021/01/12 05:36:48;;;;;;;4.93;1.93;;;;;;;;;;4974221;28;20277;-83
2021/01/12 05:39:24;;;;;;;4.17;1.80;;;;;;;;;;4995941;28;20280;-84
2021/01/12 05:41:57;;;;;;;5.30;2.23;;;;;;;;;;4981851;28;20266;-84
2021/01/12 05:44:27;;;;;;;4.07;1.63;;;;;;;;;;4976355;28;20281;-84
2021/01/12 05:46:53;;;;;;;8.00;3.57;;;;;;;;;;4978325;28;20062;-83
2021/01/12 05:49:21;;;;;;;6.57;3.03;;;;;;;;;;4980668;28;20266;-83
2021/01/12 05:51:48;;;;;;;5.90;2.50;;;;;;;;;;4981726;28;20767;-83
2021/01/12 05:54:20;;;;;;;5.03;2.23;;;;;;;;;;4993131;28;20262;-84
2021/01/12 05:56:50;;;;;;;4.93;2.00;;;;;;;;;;4979701;28;20281;-84
2021/01/12 05:59:24;;;;;;;5.53;2.30;;;;;;;;;;4971751;28;20301;-84
2021/01/12 06:02:08;;;;;;;4.93;1.73;;;;;;;;;;4963286;28;20266;-84
2021/01/12 06:04:36;;;;;;;3.67;1.65;;;;;;;;;;4983246;28;20274;-84
2021/01/12 06:07:16;;;;;;;4.20;2.23;;;;;;;;;;4977800;28;20031;-86
2021/01/12 06:09:50;;;;;;;4.93;2.03;;;;;;;;;;4997115;28;20296;-86
2021/01/12 06:12:20;;;;;;;4.60;2.33;;;;;;;;;;4996959;28;20349;-85
2021/01/12 06:15:09;;;;;;;;;;;;;;;;;;;;;
2021/01/12 06:17:37;;;;;;;6.27;2.33;;;;;;;;;;5004234;28;20301;-83
2021/01/12 06:20:14;;;;;;;8.03;3.40;;;;;;;;;;4977421;28;20332;-85
2021/01/12 06:22:43;;;;;;;5.23;2.07;;;;;;;;;;4980869;28;20262;-84
2021/01/12 06:25:30;;;;;;;5.20;2.20;;;;;;;;;;4975621;28;20282;-83
2021/01/12 06:28:25;;;;;;;5.97;2.47;;;;;;;;;;4971178;28;20774;-84
2021/01/12 06:31:04;;;;;;;6.60;2.70;;;;;;;;;;4968879;28;20302;-85
2021/01/12 06:33:41;;;;;;;4.93;2.20;;;;;;;;;;4982629;28;20258;-84
2021/01/12 06:36:47;;;;;;;5.67;2.87;;;;;;;;;;4985979;28;20392;-82
2021/01/12 06:39:43;;;;;;;5.63;2.90;;;;;;;;;;4983926;28;20770;-85
2021/01/12 06:42:28;;;;;;;6.23;2.73;;;;;;;;;;4993063;28;20296;-84
2021/01/12 06:45:07;;;;;;;8.73;3.50;;;;;;;;;;4964133;28;20273;-83
2021/01/12 06:48:10;;;;;;;8.88;3.50;;;;;;;;;;4991932;28;20309;-82
2021/01/12 06:50:36;;;;;;;6.23;3.00;;;;;;;;;;4971326;28;20038;-81
2021/01/12 06:53:05;;;;;;;9.27;3.47;;;;;;;;;;4968201;28;20273;-83
2021/01/12 06:55:31;;;;;;;6.33;2.77;;;;;;;;;;4995737;28;20261;-83
2021/01/12 06:58:27;;;;;;;7.10;3.70;;;;;;;;;;4979196;28;20294;-83
2021/01/12 07:01:03;;;;;;;7.87;3.20;;;;;;;;;;4976563;28;20264;-84
2021/01/12 07:03:35;;;;;;;6.20;2.97;;;;;;;;;;4973093;28;20262;-82
2021/01/12 07:06:03;;;;;;;8.27;3.30;;;;;;;;;;4966004;28;20302;-86
2021/01/12 07:08:46;;;;;;;4.10;2.17;;;;;;;;;;4989682;28;20293;-81
2021/01/12 07:11:27;;;;;;;6.20;3.10;;;;;;;;;;4970761;28;20624;-84
2021/01/12 07:13:53;;;;;;;7.47;3.17;;;;;;;;;;4975411;28;20309;-82
2021/01/12 07:16:28;;;;;;;10.13;3.93;;;;;;;;;;4978033;28;20803;-82
2021/01/12 07:19:30;;;;;;;7.97;3.63;;;;;;;;;;4975080;28;20298;-83
2021/01/12 07:22:05;;;;;;;6.93;3.30;;;;;;;;;;4977105;28;20274;-83
2021/01/12 07:24:39;;;;;;;8.53;4.37;;;;;;;;;;4976119;28;20277;-83
2021/01/12 07:27:08;;;;;;;7.88;4.53;;;;;;;;;;4978431;28;20806;-84
2021/01/12 07:29:45;;;;;;;11.63;5.70;;;;;;;;;;4960684;28;20070;-84
2021/01/12 07:32:11;;;;;;;10.37;5.17;;;;;;;;;;4968228;28;20358;-84
2021/01/12 07:34:54;;;;;;;6.47;3.00;;;;;;;;;;4971294;28;20285;-82
2021/01/12 07:37:41;;;;;;;10.10;4.97;;;;;;;;;;4968046;28;20392;-85
2021/01/12 07:40:09;;;;;;;9.00;3.83;;;;;;;;;;4973926;28;20824;-87
2021/01/12 07:42:48;;;;;;;10.00;4.90;;;;;;;;;;4974917;28;20365;-83
2021/01/12 07:45:18;;;;;;;6.90;3.40;;;;;;;;;;4984372;28;20272;-85
2021/01/12 07:47:44;;;;;;;6.83;3.63;;;;;;;;;;4981024;28;20301;-86
2021/01/12 07:50:11;;;;;;;7.67;3.90;;;;;;;;;;4984904;28;20265;-84
2021/01/12 07:52:37;;;;;;;8.53;4.10;;;;;;;;;;4981935;28;20273;-84
2021/01/12 07:55:03;;;;;;;8.57;4.07;;;;;;;;;;4973955;28;20278;-83
2021/01/12 07:57:32;;;;;;;9.87;4.87;;;;;;;;;;4973094;28;20670;-83
2021/01/12 07:59:59;;;;;;;7.70;4.20;;;;;;;;;;4973367;28;20775;-84
2021/01/12 08:02:26;;;;;;;8.83;4.20;;;;;;;;;;4964734;28;20301;-83
2021/01/12 08:04:54;;;;;;;8.77;4.33;;;;;;;;;;4974940;28;20328;-84
2021/01/12 08:07:24;;;;;;;10.70;4.20;;;;;;;;;;4972951;28;20314;-82
2021/01/12 08:09:57;;;;;;;9.23;4.20;;;;;;;;;;4979850;28;20278;-83
2021/01/12 08:12:23;;;;;;;7.90;3.95;;;;;;;;;;4978935;28;20269;-81
2021/01/12 08:14:50;;;;;;;7.23;3.50;;;;;;;;;;4975545;28;20431;-80
2021/01/12 08:17:20;;;;;;;9.87;4.40;;;;;;;;;;4975586;28;20266;-80
2021/01/12 08:19:49;;;;;;;11.20;4.00;;;;;;;;;;4962582;28;20274;-83
2021/01/12 08:22:27;;;;;;;10.80;4.27;;;;;;;;;;4970151;28;20826;-83
2021/01/12 08:25:03;;;;;;;9.20;3.90;;;;;;;;;;4977189;28;20331;-83
2021/01/12 08:27:29;;;;;;;11.47;4.80;;;;;;;;;;4975943;28;20317;-83
2021/01/12 08:29:55;;;;;;;9.40;4.73;;;;;;;;;;4973236;28;20276;-83
2021/01/12 08:32:22;;;;;;;8.63;4.23;;;;;;;;;;4979378;28;20309;-83
2021/01/12 08:34:58;;;;;;;12.63;5.90;;;;;;;;;;4966061;28;20266;-84
2021/01/12 08:37:31;;;;;;;12.43;5.57;;;;;;;;;;4976159;28;20273;-83
2021/01/12 08:40:04;;;;;;;12.15;6.78;;;;;;;;;;4974444;28;20385;-83
2021/01/12 08:42:31;;;;;;;9.35;4.80;;;;;;;;;;4958922;28;20039;-84
2021/01/12 08:44:59;;;;;;;9.57;5.10;;;;;;;;;;4969355;28;20046;-84
2021/01/12 08:47:26;;;;;;;11.10;6.23;;;;;;;;;;4974711;28;20293;-86
2021/01/12 08:50:02;;;;;;;12.03;5.80;;;;;;;;;;4968913;28;20284;-86
2021/01/12 08:52:30;;;;;;;10.57;5.27;;;;;;;;;;4979871;28;20284;-84
2021/01/12 08:54:56;;;;;;;12.20;5.03;;;;;;;;;;4975353;28;20309;-85
2021/01/12 08:57:26;;;;;;;12.50;6.90;;;;;;;;;;4960009;28;20262;-85
2021/01/12 08:59:52;;;;;;;11.53;6.73;;;;;;;;;;4979521;28;20270;-84
2021/01/12 09:02:21;;;;;;;11.30;5.57;;;;;;;;;;4980616;28;20969;-82
2021/01/12 09:04:58;;;;;;;11.07;6.27;;;;;;;;;;4980162;28;20288;-80
2021/01/12 09:07:24;;;;;;;14.37;7.53;;;;;;;;;;4977678;28;20969;-81
2021/01/12 09:09:51;;;;;;;12.97;6.40;;;;;;;;;;4983451;28;20333;-81
2021/01/12 09:12:18;;;;;;;14.10;7.37;;;;;;;;;;4961493;28;21186;-83
2021/01/12 09:14:46;;;;;;;15.37;6.90;;;;;;;;;;4978117;28;20304;-81
2021/01/12 09:17:15;;;;;;;13.87;7.50;;;;;;;;;;4979492;28;20281;-82
2021/01/12 09:19:41;;;;;;;14.33;7.67;;;;;;;;;;4978299;28;20286;-84
2021/01/12 09:22:18;;;;;;;16.77;7.67;;;;;;;;;;4994436;28;20282;-82
2021/01/12 09:24:55;;;;;;;16.27;7.97;;;;;;;;;;4980075;28;20785;-80
2021/01/12 09:27:27;;;;;;;13.57;7.40;;;;;;;;;;4992086;28;20290;-79
2021/01/12 09:29:55;;;;;;;14.93;8.33;;;;;;;;;;4973824;28;20329;-79
2021/01/12 09:32:36;;;;;;;12.10;6.50;;;;;;;;;;4992343;28;20288;-79
2021/01/12 09:35:03;;;;;;;14.43;7.33;;;;;;;;;;4973509;28;20281;-81
2021/01/12 09:37:31;;;;;;;10.83;6.43;;;;;;;;;;4979614;28;20269;-79
2021/01/12 09:40:00;;;;;;;13.67;7.30;;;;;;;;;;4992707;28;20746;-79
2021/01/12 09:42:42;;;;;;;13.50;6.73;;;;;;;;;;4992023;28;20300;-84
2021/01/12 09:45:08;;;;;;;14.57;6.53;;;;;;;;;;4970458;28;20783;-78
2021/01/12 09:47:35;;;;;;;16.17;7.33;;;;;;;;;;4957014;28;20293;-78
2021/01/12 09:50:01;;;;;;;14.83;7.53;;;;;;;;;;4970433;28;20274;-79
2021/01/12 09:52:27;;;;;;;14.87;7.30;;;;;;;;;;4960672;28;20265;-80
2021/01/12 09:54:57;;;;;;;17.00;7.53;;;;;;;;;;4958940;28;20278;-82
2021/01/12 09:57:23;;;;;;;14.50;8.03;;;;;;;;;;4967697;28;20301;-80
2021/01/12 09:59:52;;;;;;;16.43;7.77;;;;;;;;;;4963497;28;20353;-78
2021/01/12 10:02:18;;;;;;;11.77;6.50;;;;;;;;;;4952133;28;20317;-81
2021/01/12 10:04:45;;;;;;;18.10;8.57;;;;;;;;;;4981622;28;20283;-80
2021/01/12 10:07:11;;;;;;;15.40;7.07;;;;;;;;;;4970481;28;20279;-79
2021/01/12 10:09:40;;;;;;;15.00;8.07;;;;;;;;;;4971821;28;20275;-79
2021/01/12 10:12:06;;;;;;;19.77;8.33;;;;;;;;;;4969293;28;20274;-80
2021/01/12 10:14:32;;;;;;;14.33;7.30;;;;;;;;;;4981666;28;20275;-81
2021/01/12 10:16:58;;;;;;;15.97;8.90;;;;;;;;;;4971483;28;20282;-81
2021/01/12 10:19:26;;;;;;;16.37;8.90;;;;;;;;;;4972285;28;20282;-83
2021/01/12 10:21:53;;;;;;;12.67;6.07;;;;;;;;;;4978824;28;20276;-83
2021/01/12 10:24:22;;;;;;;14.57;8.07;;;;;;;;;;4975912;28;20265;-84
2021/01/12 10:26:53;;;;;;;14.50;8.27;;;;;;;;;;4992454;28;20296;-86
2021/01/12 10:29:20;;;;;;;14.20;6.87;;;;;;;;;;4970785;28;20293;-84
2021/01/12 10:31:49;;;;;;;14.90;7.27;;;;;;;;;;4997477;28;20270;-83
2021/01/12 10:34:16;;;;;;;11.50;6.40;;;;;;;;;;4990006;28;20270;-83
2021/01/12 10:36:43;;;;;;;14.17;6.50;;;;;;;;;;4962366;28;20274;-83
2021/01/12 10:39:09;;;;;;;12.27;6.90;;;;;;;;;;4973699;28;20282;-83
2021/01/12 10:41:39;;;;;;;11.03;6.03;;;;;;;;;;4970845;28;20905;-83
2021/01/12 10:44:05;;;;;;;10.07;5.40;;;;;;;;;;4977743;28;20278;-79
2021/01/12 10:46:34;;;;;;;16.13;6.20;;;;;;;;;;4966067;28;20290;-80
2021/01/12 10:49:01;;;;;;;9.50;5.37;;;;;;;;;;4941022;28;723336;-80
2021/01/12 10:51:27;;;;;;;9.00;4.83;;;;;;;;;;4968315;28;20318;-80
2021/01/12 10:53:53;;;;;;;10.30;5.43;;;;;;;;;;4988528;28;20289;-79
2021/01/12 10:56:19;;;;;;;10.73;5.10;;;;;;;;;;4979032;28;20627;-81
2021/01/12 10:58:45;;;;;;;9.47;4.43;;;;;;;;;;4978286;28;20273;-82
2021/01/12 11:01:16;;;;;;;7.70;4.40;;;;;;;;;;4978450;28;20277;-79
2021/01/12 11:03:44;;;;;;;7.70;3.70;;;;;;;;;;4969709;28;20278;-80
2021/01/12 11:06:10;;;;;;;6.83;3.23;;;;;;;;;;4972183;28;20289;-81
2021/01/12 11:08:37;;;;;;;7.47;3.30;;;;;;;;;;4972875;28;20270;-79
2021/01/12 11:11:03;;;;;;;7.80;3.07;;;;;;;;;;4977248;28;20254;-80
2021/01/12 11:13:31;;;;;;;5.87;3.07;;;;;;;;;;4973314;28;20274;-81
2021/01/12 11:16:15;;;;;;;3.83;2.10;;;;;;;;;;4967487;28;21077;-81
2021/01/12 11:18:41;;;;;;;5.07;2.55;;;;;;;;;;4975258;28;20278;-85
2021/01/12 11:21:07;;;;;;;3.93;2.20;;;;;;;;;;4973633;28;20109;-80
2021/01/12 11:23:33;;;;;;;5.10;1.87;;;;;;;;;;4977013;28;20808;-80
2021/01/12 11:26:02;;;;;;;4.33;1.53;;;;;;;;;;4978679;28;20347;-81
2021/01/12 11:28:29;;;;;;;3.73;1.30;;;;;;;;;;4977817;28;20285;-83
2021/01/12 11:30:57;;;;;;;4.00;1.50;;;;;;;;;;4975878;28;20285;-84
2021/01/12 11:33:23;;;;;;;3.43;1.53;;;;;;;;;;4961030;28;20377;-82
2021/01/12 11:35:49;;;;;;;3.40;1.67;;;;;;;;;;4965472;28;20832;-81
2021/01/12 11:38:15;;;;;;;1.83;1.00;;;;;;;;;;4968324;28;20266;-83
2021/01/12 11:40:41;;;;;;;4.50;1.63;;;;;;;;;;4995703;28;20273;-81
2021/01/12 11:43:08;;;;;;;4.17;1.50;;;;;;;;;;4977440;28;20751;-83
2021/01/12 11:45:37;;;;;;;3.67;1.20;;;;;;;;;;5001444;28;20269;-84
2021/01/12 11:48:03;;;;;;;4.17;2.10;;;;;;;;;;5007987;28;20305;-84
2021/01/12 11:50:29;;;;;;;3.83;1.70;;;;;;;;;;4971923;28;20289;-82
2021/01/12 11:52:56;;;;;;;4.43;1.53;;;;;;;;;;4959909;28;20324;-82
2021/01/12 11:55:22;;;;;;;7.27;3.70;;;;;;;;;;4961264;28;20290;-81
2021/01/12 11:57:48;;;;;;;5.07;2.37;;;;;;;;;;4958312;28;20330;-81
2021/01/12 12:00:15;;;;;;;2.37;1.03;;;;;;;;;;4977234;28;20282;-83
2021/01/12 12:02:47;;;;;;;3.33;1.43;;;;;;;;;;4976876;28;20305;-83
2021/01/12 12:05:20;;;;;;;4.90;1.50;;;;;;;;;;4971483;28;20353;-81
2021/01/12 12:07:49;;;;;;;4.05;1.15;;;;;;;;;;4967076;28;20376;-81
2021/01/12 12:10:16;;;;;;;1.87;1.03;;;;;;;;;;4978572;28;20030;-81
2021/01/12 12:12:43;;;;;;;4.40;1.93;;;;;;;;;;4974178;28;20285;-81
2021/01/12 12:15:12;;;;;;;2.40;1.10;;;;;;;;;;4966166;28;20277;-81
2021/01/12 12:17:38;;;;;;;2.93;1.17;;;;;;;;;;4972308;28;20309;-79
2021/01/12 12:20:14;;;;;;;4.07;1.90;;;;;;;;;;4985773;28;20274;-79
2021/01/12 12:22:59;;;;;;;4.07;1.60;;;;;;;;;;4983210;28;20278;-78
2021/01/12 12:25:25;;;;;;;5.30;1.67;;;;;;;;;;4979679;28;20374;-79
2021/01/12 12:27:51;;;;;;;5.53;2.30;;;;;;;;;;4971628;28;20292;-79
2021/01/12 12:30:17;;;;;;;2.33;1.30;;;;;;;;;;4986475;28;20360;-81
2021/01/12 12:32:43;;;;;;;3.37;1.70;;;;;;;;;;4967295;28;20289;-80
2021/01/12 12:35:24;;;;;;;4.93;1.67;;;;;;;;;;4975228;28;20289;-83
2021/01/12 12:37:54;;;;;;;4.43;2.00;;;;;;;;;;4972415;28;20285;-84
2021/01/12 12:40:20;;;;;;;4.20;1.27;;;;;;;;;;4992514;28;20285;-81
2021/01/12 12:42:46;;;;;;;3.47;2.17;;;;;;;;;;4961331;28;20270;-83
2021/01/12 12:45:12;;;;;;;2.27;1.10;;;;;;;;;;4972782;28;20278;-82
2021/01/12 12:47:40;;;;;;;2.30;1.20;;;;;;;;;;4975795;28;20782;-83
2021/01/12 12:50:07;;;;;;;3.17;1.30;;;;;;;;;;4970634;28;21080;-82
2021/01/12 12:52:34;;;;;;;3.60;1.50;;;;;;;;;;4974901;28;21460;-82
2021/01/12 12:55:01;;;;;;;2.70;1.30;;;;;;;;;;4962675;28;21021;-82
2021/01/12 12:57:29;;;;;;;3.43;1.40;;;;;;;;;;4975720;28;20281;-82
2021/01/12 13:00:00;;;;;;;4.57;1.67;;;;;;;;;;4973633;28;20297;-82
2021/01/12 13:02:27;;;;;;;2.20;1.03;;;;;;;;;;4978091;28;20313;-83
2021/01/12 13:04:56;;;;;;;3.33;1.27;;;;;;;;;;4996398;28;20975;-85
2021/01/12 13:07:23;;;;;;;5.70;2.43;;;;;;;;;;4968548;28;20286;-82
2021/01/12 13:09:49;;;;;;;3.43;1.43;;;;;;;;;;4968135;28;20282;-83
2021/01/12 13:12:16;;;;;;;3.53;1.60;;;;;;;;;;4972448;28;20288;-80
2021/01/12 13:14:42;;;;;;;2.43;1.20;;;;;;;;;;4977796;28;20277;-84
2021/01/12 13:17:09;;;;;;;4.23;1.57;;;;;;;;;;4974419;28;20286;-83
2021/01/12 13:19:38;;;;;;;3.20;1.60;;;;;;;;;;4978129;28;20305;-83
2021/01/12 13:22:05;;;;;;;2.60;1.27;;;;;;;;;;4971694;28;20801;-84
2021/01/12 13:24:42;;;;;;;3.67;1.60;;;;;;;;;;4966830;28;20286;-85
2021/01/12 13:27:11;;;;;;;2.73;1.77;;;;;;;;;;4965378;28;20313;-83
2021/01/12 13:29:42;;;;;;;3.37;1.40;;;;;;;;;;4894059;28;20286;-84
2021/01/12 13:32:09;;;;;;;4.73;1.40;;;;;;;;;;4960150;28;20286;-84
2021/01/12 13:34:41;;;;;;;3.07;1.30;;;;;;;;;;4992191;28;20313;-85
2021/01/12 13:37:08;;;;;;;3.13;1.50;;;;;;;;;;4985934;28;20275;-83
2021/01/12 13:39:36;;;;;;;4.13;1.80;;;;;;;;;;4975182;28;20374;-83
2021/01/12 13:42:09;;;;;;;4.47;1.50;;;;;;;;;;4989369;28;20289;-84
2021/01/12 13:44:36;;;;;;;4.28;1.75;;;;;;;;;;4956127;28;20278;-82
2021/01/12 13:47:03;;;;;;;2.40;1.30;;;;;;;;;;4969720;28;20493;-81
2021/01/12 13:49:29;;;;;;;3.23;0.90;;;;;;;;;;4975533;28;20281;-83
2021/01/12 13:51:56;;;;;;;7.20;3.20;;;;;;;;;;4954306;28;20289;-83
2021/01/12 13:54:23;;;;;;;3.33;1.37;;;;;;;;;;4985038;28;20394;-83
2021/01/12 13:56:52;;;;;;;2.40;1.23;;;;;;;;;;4967283;28;20876;-84
2021/01/12 13:59:21;;;;;;;3.80;1.80;;;;;;;;;;4965336;28;20270;-83
2021/01/12 14:02:02;;;;;;;3.37;1.67;;;;;;;;;;4968807;28;20267;-84
2021/01/12 14:07:32;;;;;;;2.63;1.27;;;;;;;;;;5004714;23;20308;-85
2021/01/12 14:10:43;;;;;;;2.00;1.20;;;;;;;;;;4965086;28;20340;-84
2021/01/12 14:13:33;;;;;;;3.10;1.40;;;;;;;;;;4961644;28;20273;-82
2021/01/12 14:15:59;;;;;;;4.90;2.20;;;;;;;;;;4985618;28;20282;-82
2021/01/12 14:21:22;;;;;;;5.83;2.70;;;;;;;;;;4980099;28;20282;-82
2021/01/12 14:24:14;;;;;;;3.47;1.95;;;;;;;;;;4961981;28;20341;-84
2021/01/12 14:26:59;;;;;;;;;;;;;;;;;;;;;
2021/01/12 14:29:59;;;;;;;;;;;;;;;;;;;;;
2021/01/12 14:32:45;;;;;;;5.83;2.57;;;;;;;;;;4977357;28;20639;-83
2021/01/12 14:35:35;;;;;;;7.53;3.10;;;;;;;;;;4970079;28;20263;-81
2021/01/12 14:38:33;;;;;;;;;;;;;;;;;;;;;
2021/01/12 14:41:02;;;;;;;4.50;2.43;;;;;;;;;;4977921;28;20710;-83
2021/01/12 14:43:34;;;;;;;5.20;2.60;;;;;;;;;;4976283;28;20337;-82
2021/01/12 14:46:19;;;;;;;5.97;3.17;;;;;;;;;;4974321;28;20310;-82
2021/01/12 14:55:25;;;;;;;;;;;;;;;;;;;;;
2021/01/12 15:10:39;;;;;;;5.47;2.70;;;;;;;;;;4978112;28;20297;-83
2021/01/12 16:02:57;;;;;;;16.10;9.70;;;;;;;;;;4968744;28;20271;-79
2021/01/12 16:11:39;;;;;;;;;;;;;;;;;;;;;
2021/01/12 16:20:27;;;;;;;7.27;3.77;;;;;;;;;;4853145;29;20673;-80
2021/01/12 16:26:29;;;;;;;;;;;;;;;;;;;;;
2021/01/12 16:29:27;;;;;;;9.60;6.23;;;;;;;;;;4988860;28;20059;-84